createdAt,value
2023-04-18T00:00:44.848Z,8.61
2023-04-18T00:05:48.240Z,8.61
2023-04-18T00:10:50.039Z,8.62
2023-04-18T00:15:54.210Z,8.63
2023-04-18T00:20:56.826Z,8.64
2023-04-18T00:25:58.850Z,8.64
2023-04-18T00:31:00.765Z,8.64
2023-04-18T00:36:03.358Z,8.64
2023-04-18T00:41:05.099Z,8.63
2023-04-18T00:46:06.937Z,8.63
2023-04-18T00:51:09.857Z,8.61
2023-04-18T00:56:11.825Z,8.59
2023-04-18T01:01:13.694Z,8.56
2023-04-18T01:06:15.536Z,8.56
2023-04-18T01:11:17.607Z,8.57
2023-04-18T01:16:22.309Z,8.57
2023-04-18T01:21:24.767Z,8.58
2023-04-18T01:26:28.015Z,8.58
2023-04-18T01:31:30.802Z,8.56
2023-04-18T01:36:33.155Z,8.55
2023-04-18T01:41:35.210Z,8.55
2023-04-18T01:46:36.974Z,8.56
2023-04-18T01:51:38.973Z,8.58
2023-04-18T01:56:40.720Z,8.57
2023-04-18T02:01:42.841Z,8.56
2023-04-18T02:06:44.547Z,8.56
2023-04-18T02:11:46.506Z,8.57
2023-04-18T02:16:48.297Z,8.56
2023-04-18T02:21:51.294Z,8.53
2023-04-18T02:26:53.034Z,8.50
2023-04-18T02:31:54.721Z,8.49
2023-04-18T02:36:56.417Z,8.48
2023-04-18T02:41:58.816Z,8.47
2023-04-18T02:47:00.513Z,8.46
2023-04-18T02:52:02.266Z,8.45
2023-04-18T02:57:04.039Z,8.44
2023-04-18T03:02:29.069Z,8.41
2023-04-18T03:07:33.992Z,8.37
2023-04-18T03:12:35.800Z,8.32
2023-04-18T03:17:38.000Z,8.30
2023-04-18T03:22:40.321Z,8.30
2023-04-18T03:27:43.270Z,8.31
2023-04-18T03:32:49.023Z,8.34
2023-04-18T03:37:51.152Z,8.37
2023-04-18T03:42:59.939Z,8.39
2023-04-18T03:48:02.059Z,8.41
2023-04-18T03:53:06.758Z,8.42
2023-04-18T03:58:10.263Z,8.44
2023-04-18T04:07:12.079Z,8.49
2023-04-18T04:12:13.886Z,8.47
2023-04-18T04:17:15.997Z,8.51
2023-04-18T04:22:17.784Z,8.53
2023-04-18T04:27:20.623Z,8.58
2023-04-18T04:32:22.714Z,8.65
2023-04-18T04:37:24.780Z,8.71
2023-04-18T04:42:35.926Z,8.77
2023-04-18T04:47:43.335Z,8.82
2023-04-18T04:52:45.430Z,8.88
2023-04-18T04:57:47.838Z,8.95
2023-04-18T05:03:02.360Z,9.01
2023-04-18T05:08:04.672Z,9.06
2023-04-18T05:13:06.662Z,9.12
2023-04-18T05:18:09.098Z,9.17
2023-04-18T05:23:10.934Z,9.24
2023-04-18T05:28:12.606Z,9.31
2023-04-18T05:33:14.345Z,9.40
2023-04-18T05:38:16.084Z,9.51
2023-04-18T05:43:19.421Z,9.71
2023-04-18T05:48:23.001Z,9.95
2023-04-18T05:53:24.749Z,10.09
2023-04-18T05:58:28.718Z,10.17
2023-04-18T06:03:31.165Z,10.26
2023-04-18T06:08:33.374Z,10.36
2023-04-18T06:13:35.474Z,10.41
2023-04-18T06:18:37.619Z,10.47
2023-04-18T06:23:39.299Z,10.53
2023-04-18T06:28:41.108Z,10.59
2023-04-18T06:33:42.850Z,10.79
2023-04-18T06:38:45.150Z,10.92
2023-04-18T06:44:01.613Z,11.08
2023-04-18T06:49:04.254Z,11.21
2023-04-18T06:54:06.197Z,11.37
2023-04-18T06:59:07.931Z,11.60
2023-04-18T07:04:09.838Z,11.95
2023-04-18T07:09:11.829Z,12.51
2023-04-18T07:14:13.747Z,12.85
2023-04-18T07:19:15.651Z,12.94
2023-04-18T07:24:17.403Z,13.20
2023-04-18T07:29:22.031Z,13.39
2023-04-18T07:34:23.724Z,13.51
2023-04-18T07:39:25.578Z,13.53
2023-04-18T07:44:27.582Z,13.72
2023-04-18T07:49:29.313Z,14.03
2023-04-18T07:54:31.078Z,14.07
2023-04-18T07:59:32.982Z,14.15
2023-04-18T08:04:34.799Z,14.14
2023-04-18T08:09:36.660Z,14.21
2023-04-18T08:14:38.485Z,14.40
2023-04-18T08:19:40.166Z,14.29
2023-04-18T08:24:51.078Z,14.13
2023-04-18T08:30:04.747Z,14.05
2023-04-18T08:35:06.707Z,14.15
2023-04-18T08:40:08.977Z,14.28
2023-04-18T08:45:15.185Z,14.09
2023-04-18T08:50:17.323Z,14.18
2023-04-18T08:55:19.435Z,14.01
2023-04-18T09:00:22.731Z,14.10
2023-04-18T09:05:26.895Z,14.45
2023-04-18T09:10:32.928Z,14.65
2023-04-18T09:15:35.252Z,14.97
2023-04-18T09:20:42.194Z,15.18
2023-04-18T09:25:48.985Z,15.68
2023-04-18T09:30:52.694Z,16.09
2023-04-18T09:35:55.734Z,16.12
2023-04-18T09:41:11.140Z,16.24
2023-04-18T09:46:13.425Z,16.07
2023-04-18T09:51:16.632Z,15.86
2023-04-18T09:56:26.066Z,15.38
2023-04-18T10:01:29.733Z,15.36
2023-04-18T10:06:33.958Z,15.69
2023-04-18T10:11:36.577Z,15.59
2023-04-18T10:16:39.323Z,15.05
2023-04-18T10:21:51.799Z,14.98
2023-04-18T10:26:53.552Z,14.97
2023-04-18T10:31:55.777Z,14.92
2023-04-18T10:37:05.532Z,15.18
2023-04-18T10:42:07.240Z,15.58
2023-04-18T10:47:08.965Z,15.77
2023-04-18T10:57:13.944Z,16.38
2023-04-18T11:02:26.272Z,16.78
2023-04-18T11:07:36.460Z,16.74
2023-04-18T11:12:40.822Z,16.77
2023-04-18T11:17:42.930Z,16.64
2023-04-18T11:22:59.064Z,16.54
2023-04-18T11:28:02.743Z,16.91
2023-04-18T11:33:09.059Z,17.13
2023-04-18T11:38:15.602Z,16.95
2023-04-18T11:43:23.261Z,16.85
2023-04-18T11:48:37.736Z,16.68
2023-04-18T11:53:39.937Z,16.41
2023-04-18T11:58:42.930Z,16.60
2023-04-18T12:03:59.422Z,16.83
2023-04-18T12:09:01.547Z,16.83
2023-04-18T12:14:04.195Z,17.22
2023-04-18T12:19:06.316Z,17.37
2023-04-18T12:24:18.396Z,17.40
2023-04-18T12:29:20.124Z,17.74
2023-04-18T12:34:21.960Z,17.84
2023-04-18T12:39:23.734Z,18.32
2023-04-18T12:44:25.371Z,18.95
2023-04-18T12:49:26.993Z,18.49
2023-04-18T12:54:28.680Z,18.13
2023-04-18T12:59:30.842Z,18.34
2023-04-18T13:04:32.919Z,19.26
2023-04-18T13:09:35.557Z,19.69
2023-04-18T13:14:37.268Z,20.00
2023-04-18T13:19:38.943Z,19.84
2023-04-18T13:24:40.876Z,19.59
2023-04-18T13:29:43.807Z,19.27
2023-04-18T13:34:47.332Z,19.14
2023-04-18T13:39:49.177Z,18.68
2023-04-18T13:44:50.840Z,18.58
2023-04-18T13:49:52.686Z,18.50
2023-04-18T13:54:55.524Z,18.34
2023-04-18T13:59:57.449Z,18.52
2023-04-18T14:04:59.314Z,18.47
2023-04-18T14:10:01.147Z,17.96
2023-04-18T14:15:15.788Z,17.61
2023-04-18T14:20:20.789Z,17.81
2023-04-18T14:25:22.528Z,17.87
2023-04-18T14:30:24.678Z,17.75
2023-04-18T14:35:26.417Z,17.56
2023-04-18T14:40:29.145Z,17.46
2023-04-18T14:45:33.457Z,17.41
2023-04-18T14:50:36.325Z,17.37
2023-04-18T14:55:37.982Z,17.61
2023-04-18T15:00:39.647Z,17.51
2023-04-18T15:05:46.362Z,17.19
2023-04-18T15:10:48.155Z,16.93
2023-04-18T15:15:54.212Z,16.96
2023-04-18T15:20:56.990Z,17.14
2023-04-18T15:25:59.653Z,17.29
2023-04-18T15:31:01.457Z,16.95
2023-04-18T15:36:03.298Z,16.45
2023-04-18T15:41:05.254Z,16.17
2023-04-18T15:46:07.491Z,15.91
2023-04-18T15:51:09.261Z,15.59
2023-04-18T15:56:10.972Z,15.42
2023-04-18T16:01:16.113Z,15.30
2023-04-18T16:06:22.322Z,15.17
2023-04-18T16:11:27.569Z,15.05
2023-04-18T16:16:29.516Z,14.97
2023-04-18T16:21:32.562Z,14.87
2023-04-18T16:26:34.259Z,14.74
2023-04-18T16:31:36.172Z,14.62
2023-04-18T16:36:38.173Z,14.55
2023-04-18T16:41:39.868Z,14.55
2023-04-18T16:46:41.752Z,14.50
2023-04-18T16:51:43.611Z,14.40
2023-04-18T16:56:45.673Z,14.24
2023-04-18T17:01:47.435Z,14.15
2023-04-18T17:06:51.853Z,14.03
2023-04-18T17:11:53.971Z,13.88
2023-04-18T17:16:55.874Z,13.75
2023-04-18T17:21:57.591Z,13.61
2023-04-18T17:27:00.320Z,13.50
2023-04-18T17:32:02.070Z,13.41
2023-04-18T17:37:05.407Z,13.33
2023-04-18T17:42:07.127Z,13.24
2023-04-18T17:47:08.851Z,13.19
2023-04-18T17:52:10.767Z,13.14
2023-04-18T17:57:12.967Z,13.09
2023-04-18T18:02:15.219Z,13.06
2023-04-18T18:07:17.148Z,12.96
2023-04-18T18:12:18.854Z,12.87
2023-04-18T18:17:20.584Z,12.75
2023-04-18T18:22:24.852Z,12.66
2023-04-18T18:27:26.512Z,12.53
2023-04-18T18:32:28.609Z,12.43
2023-04-18T18:37:30.327Z,12.33
2023-04-18T18:42:32.084Z,12.22
2023-04-18T18:47:34.407Z,12.12
2023-04-18T18:52:36.964Z,11.99
2023-04-18T18:57:38.849Z,11.86
2023-04-18T19:02:40.840Z,11.75
2023-04-18T19:07:42.875Z,11.63
2023-04-18T19:12:44.859Z,11.48
2023-04-18T19:17:47.089Z,11.31
2023-04-18T19:22:49.257Z,11.19
2023-04-18T19:27:51.315Z,11.10
2023-04-18T19:32:53.603Z,10.98
2023-04-18T19:38:01.560Z,10.86
2023-04-18T19:43:03.322Z,10.78
2023-04-18T19:48:05.720Z,10.69
2023-04-18T19:53:08.336Z,10.63
2023-04-18T19:58:10.043Z,10.61
2023-04-18T20:03:15.196Z,10.59
2023-04-18T20:08:17.430Z,10.57
2023-04-18T20:13:19.099Z,10.56
2023-04-18T20:18:21.374Z,10.55
2023-04-18T20:23:23.091Z,10.56
2023-04-18T20:28:24.910Z,10.57
2023-04-18T20:33:26.704Z,10.58
2023-04-18T20:38:29.837Z,10.59
2023-04-18T20:43:36.635Z,10.61
2023-04-18T20:48:39.906Z,10.62
2023-04-18T20:53:41.856Z,10.65
2023-04-18T20:58:43.665Z,10.68
2023-04-18T21:03:45.732Z,10.72
2023-04-18T21:08:48.785Z,10.74
2023-04-18T21:13:55.472Z,10.78
2023-04-18T21:18:57.367Z,10.80
2023-04-18T21:23:59.039Z,10.83
2023-04-18T21:29:04.667Z,10.85
2023-04-18T21:34:06.540Z,10.88
2023-04-18T21:39:08.430Z,10.90
2023-04-18T21:44:11.265Z,10.94
2023-04-18T21:49:16.622Z,10.97
2023-04-18T21:54:19.923Z,11.01
2023-04-18T21:59:21.787Z,11.04
2023-04-18T22:04:26.199Z,11.08
2023-04-18T22:09:29.541Z,11.11
2023-04-18T22:14:34.106Z,11.13
2023-04-18T22:19:36.226Z,11.13
2023-04-18T22:24:37.953Z,11.11
2023-04-18T22:29:39.657Z,11.04
2023-04-18T22:34:41.553Z,10.95
2023-04-18T22:39:43.250Z,10.86
2023-04-18T22:44:46.168Z,10.79
2023-04-18T22:49:47.891Z,10.73
2023-04-18T22:54:49.616Z,10.68
2023-04-18T22:59:51.450Z,10.61
2023-04-18T23:04:53.504Z,10.55
2023-04-18T23:09:56.085Z,10.42
2023-04-18T23:14:58.655Z,10.33
2023-04-18T23:20:01.299Z,10.26
2023-04-18T23:25:03.275Z,10.20
2023-04-18T23:30:07.900Z,10.17
2023-04-18T23:35:15.692Z,10.14
2023-04-18T23:40:18.347Z,10.08
2023-04-18T23:45:20.233Z,10.03
2023-04-18T23:50:23.610Z,10.00
2023-04-18T23:55:25.374Z,9.99
